sensor_id;sensor_type;location;lat;lon;timestamp;temperature;humidity
73576;DHT22;61859;49.204;8.140;2023-03-01T00:01:58;-1.20;80.50
73576;DHT22;61859;49.204;8.140;2023-03-01T00:04:24;-1.30;80.80
73576;DHT22;61859;49.204;8.140;2023-03-01T00:06:49;-1.30;81.00
73576;DHT22;61859;49.204;8.140;2023-03-01T00:09:15;-1.20;80.80
73576;DHT22;61859;49.204;8.140;2023-03-01T00:11:41;-1.10;80.70
73576;DHT22;61859;49.204;8.140;2023-03-01T00:14:06;-1.40;80.80
73576;DHT22;61859;49.204;8.140;2023-03-01T00:16:40;-1.20;81.10
73576;DHT22;61859;49.204;8.140;2023-03-01T00:19:09;-1.20;81.10
73576;DHT22;61859;49.204;8.140;2023-03-01T00:21:36;-1.10;80.80
73576;DHT22;61859;49.204;8.140;2023-03-01T00:24:03;-1.30;80.90
73576;DHT22;61859;49.204;8.140;2023-03-01T00:26:28;-1.20;80.80
73576;DHT22;61859;49.204;8.140;2023-03-01T00:28:56;-1.30;80.70
73576;DHT22;61859;49.204;8.140;2023-03-01T00:31:23;-1.30;81.10
73576;DHT22;61859;49.204;8.140;2023-03-01T00:33:53;-1.30;81.30
73576;DHT22;61859;49.204;8.140;2023-03-01T00:36:23;-1.40;81.30
73576;DHT22;61859;49.204;8.140;2023-03-01T00:38:48;-1.30;81.20
73576;DHT22;61859;49.204;8.140;2023-03-01T00:41:15;-1.30;81.40
73576;DHT22;61859;49.204;8.140;2023-03-01T00:43:41;-1.30;81.40
73576;DHT22;61859;49.204;8.140;2023-03-01T00:46:13;-1.30;81.50
73576;DHT22;61859;49.204;8.140;2023-03-01T00:48:39;-1.30;81.20
73576;DHT22;61859;49.204;8.140;2023-03-01T00:51:10;-1.40;81.10
73576;DHT22;61859;49.204;8.140;2023-03-01T00:53:36;-1.20;81.40
73576;DHT22;61859;49.204;8.140;2023-03-01T00:56:02;-1.20;81.40
73576;DHT22;61859;49.204;8.140;2023-03-01T00:58:28;-1.40;81.60
73576;DHT22;61859;49.204;8.140;2023-03-01T01:00:54;-1.40;81.70
73576;DHT22;61859;49.204;8.140;2023-03-01T01:03:19;-1.50;82.00
73576;DHT22;61859;49.204;8.140;2023-03-01T01:05:45;-1.30;82.00
73576;DHT22;61859;49.204;8.140;2023-03-01T01:08:11;-1.30;82.00
73576;DHT22;61859;49.204;8.140;2023-03-01T01:10:37;-1.40;82.10
73576;DHT22;61859;49.204;8.140;2023-03-01T01:13:03;-1.30;82.40
73576;DHT22;61859;49.204;8.140;2023-03-01T01:15:31;-1.40;82.30
73576;DHT22;61859;49.204;8.140;2023-03-01T01:17:58;-1.50;82.30
73576;DHT22;61859;49.204;8.140;2023-03-01T01:20:23;-1.40;82.50
73576;DHT22;61859;49.204;8.140;2023-03-01T01:22:49;-1.50;82.60
73576;DHT22;61859;49.204;8.140;2023-03-01T01:25:14;-1.30;82.70
73576;DHT22;61859;49.204;8.140;2023-03-01T01:27:40;-1.50;82.80
73576;DHT22;61859;49.204;8.140;2023-03-01T01:30:06;-1.50;82.80
73576;DHT22;61859;49.204;8.140;2023-03-01T01:32:31;-1.50;82.90
73576;DHT22;61859;49.204;8.140;2023-03-01T01:34:57;-1.50;83.20
73576;DHT22;61859;49.204;8.140;2023-03-01T01:37:22;-1.60;83.30
73576;DHT22;61859;49.204;8.140;2023-03-01T01:39:48;-1.80;83.50
73576;DHT22;61859;49.204;8.140;2023-03-01T01:42:18;-1.80;83.50
73576;DHT22;61859;49.204;8.140;2023-03-01T01:44:47;-1.80;83.90
73576;DHT22;61859;49.204;8.140;2023-03-01T01:47:15;-1.60;84.00
73576;DHT22;61859;49.204;8.140;2023-03-01T01:49:54;-1.60;84.10
73576;DHT22;61859;49.204;8.140;2023-03-01T01:52:24;-1.70;84.10
73576;DHT22;61859;49.204;8.140;2023-03-01T01:55:00;-1.70;84.20
73576;DHT22;61859;49.204;8.140;2023-03-01T01:57:39;-1.70;84.40
73576;DHT22;61859;49.204;8.140;2023-03-01T02:00:15;-1.80;84.70
73576;DHT22;61859;49.204;8.140;2023-03-01T02:02:43;-1.70;84.70
73576;DHT22;61859;49.204;8.140;2023-03-01T02:07:42;-1.90;84.60
73576;DHT22;61859;49.204;8.140;2023-03-01T02:10:08;-1.80;84.60
73576;DHT22;61859;49.204;8.140;2023-03-01T02:12:36;-1.90;85.10
73576;DHT22;61859;49.204;8.140;2023-03-01T02:15:02;-2.00;85.10
73576;DHT22;61859;49.204;8.140;2023-03-01T02:17:28;-2.10;85.00
73576;DHT22;61859;49.204;8.140;2023-03-01T02:22:47;-1.90;85.10
73576;DHT22;61859;49.204;8.140;2023-03-01T02:28:03;-1.90;85.10
73576;DHT22;61859;49.204;8.140;2023-03-01T02:30:31;-1.80;85.30
73576;DHT22;61859;49.204;8.140;2023-03-01T02:32:59;-1.80;85.20
73576;DHT22;61859;49.204;8.140;2023-03-01T02:35:29;-1.80;85.20
73576;DHT22;61859;49.204;8.140;2023-03-01T02:37:55;-2.00;85.20
73576;DHT22;61859;49.204;8.140;2023-03-01T02:40:23;-2.00;85.40
73576;DHT22;61859;49.204;8.140;2023-03-01T02:42:55;-2.20;85.50
73576;DHT22;61859;49.204;8.140;2023-03-01T02:45:21;-2.00;85.60
73576;DHT22;61859;49.204;8.140;2023-03-01T02:47:48;-2.10;85.70
73576;DHT22;61859;49.204;8.140;2023-03-01T02:53:10;-2.10;85.90
73576;DHT22;61859;49.204;8.140;2023-03-01T02:55:36;-2.10;85.90
73576;DHT22;61859;49.204;8.140;2023-03-01T02:58:03;-2.10;85.80
73576;DHT22;61859;49.204;8.140;2023-03-01T03:00:36;-2.10;86.00
73576;DHT22;61859;49.204;8.140;2023-03-01T03:03:06;-2.00;86.10
73576;DHT22;61859;49.204;8.140;2023-03-01T03:05:32;-2.10;86.00
73576;DHT22;61859;49.204;8.140;2023-03-01T03:07:59;-1.90;85.60
73576;DHT22;61859;49.204;8.140;2023-03-01T03:10:29;-1.90;85.60
73576;DHT22;61859;49.204;8.140;2023-03-01T03:13:01;-1.70;85.60
73576;DHT22;61859;49.204;8.140;2023-03-01T03:15:27;-1.80;85.60
73576;DHT22;61859;49.204;8.140;2023-03-01T03:17:55;-1.90;85.50
73576;DHT22;61859;49.204;8.140;2023-03-01T03:20:23;-1.80;85.50
73576;DHT22;61859;49.204;8.140;2023-03-01T03:22:51;-1.80;85.40
73576;DHT22;61859;49.204;8.140;2023-03-01T03:25:18;-1.60;85.50
73576;DHT22;61859;49.204;8.140;2023-03-01T03:27:46;-1.90;85.30
73576;DHT22;61859;49.204;8.140;2023-03-01T03:30:15;-1.90;85.30
73576;DHT22;61859;49.204;8.140;2023-03-01T03:32:42;-1.70;85.30
73576;DHT22;61859;49.204;8.140;2023-03-01T03:35:21;-1.90;85.30
73576;DHT22;61859;49.204;8.140;2023-03-01T03:37:47;-1.70;85.20
73576;DHT22;61859;49.204;8.140;2023-03-01T03:40:39;-1.90;85.20
73576;DHT22;61859;49.204;8.140;2023-03-01T03:43:10;-2.00;85.50
73576;DHT22;61859;49.204;8.140;2023-03-01T03:45:37;-1.80;85.30
73576;DHT22;61859;49.204;8.140;2023-03-01T03:48:04;-2.00;85.70
73576;DHT22;61859;49.204;8.140;2023-03-01T03:50:31;-2.10;85.70
73576;DHT22;61859;49.204;8.140;2023-03-01T03:52:56;-1.90;85.90
73576;DHT22;61859;49.204;8.140;2023-03-01T03:55:22;-1.90;85.70
73576;DHT22;61859;49.204;8.140;2023-03-01T03:57:48;-2.10;85.70
73576;DHT22;61859;49.204;8.140;2023-03-01T04:00:19;-2.00;85.70
73576;DHT22;61859;49.204;8.140;2023-03-01T04:02:47;-2.00;85.70
73576;DHT22;61859;49.204;8.140;2023-03-01T04:05:14;-2.10;86.00
73576;DHT22;61859;49.204;8.140;2023-03-01T04:07:41;-2.10;86.10
73576;DHT22;61859;49.204;8.140;2023-03-01T04:10:16;-2.20;86.20
73576;DHT22;61859;49.204;8.140;2023-03-01T04:12:43;-2.10;86.20
73576;DHT22;61859;49.204;8.140;2023-03-01T04:15:09;-2.00;86.10
73576;DHT22;61859;49.204;8.140;2023-03-01T04:17:46;-2.00;86.30
73576;DHT22;61859;49.204;8.140;2023-03-01T04:20:14;-2.20;86.40
73576;DHT22;61859;49.204;8.140;2023-03-01T04:22:51;-2.10;86.50
73576;DHT22;61859;49.204;8.140;2023-03-01T04:25:17;-2.20;86.60
73576;DHT22;61859;49.204;8.140;2023-03-01T04:27:43;-2.10;86.70
73576;DHT22;61859;49.204;8.140;2023-03-01T04:30:09;-2.20;86.70
73576;DHT22;61859;49.204;8.140;2023-03-01T04:32:35;-2.20;86.70
73576;DHT22;61859;49.204;8.140;2023-03-01T04:35:00;-2.10;86.70
73576;DHT22;61859;49.204;8.140;2023-03-01T04:37:26;-2.00;86.60
73576;DHT22;61859;49.204;8.140;2023-03-01T04:39:52;-2.20;86.60
73576;DHT22;61859;49.204;8.140;2023-03-01T04:42:19;-2.10;86.90
73576;DHT22;61859;49.204;8.140;2023-03-01T04:44:45;-2.20;86.80
73576;DHT22;61859;49.204;8.140;2023-03-01T04:47:11;-2.20;87.00
73576;DHT22;61859;49.204;8.140;2023-03-01T04:49:37;-2.00;87.10
73576;DHT22;61859;49.204;8.140;2023-03-01T04:52:03;-2.20;86.90
73576;DHT22;61859;49.204;8.140;2023-03-01T04:54:30;-2.20;86.80
73576;DHT22;61859;49.204;8.140;2023-03-01T04:56:56;-1.90;86.80
73576;DHT22;61859;49.204;8.140;2023-03-01T04:59:22;-2.20;86.90
73576;DHT22;61859;49.204;8.140;2023-03-01T05:01:48;-2.20;87.00
73576;DHT22;61859;49.204;8.140;2023-03-01T05:04:14;-2.00;87.10
73576;DHT22;61859;49.204;8.140;2023-03-01T05:06:40;-2.20;87.20
73576;DHT22;61859;49.204;8.140;2023-03-01T05:09:06;-2.20;87.40
73576;DHT22;61859;49.204;8.140;2023-03-01T05:11:31;-2.20;87.30
73576;DHT22;61859;49.204;8.140;2023-03-01T05:14:05;-2.00;87.30
73576;DHT22;61859;49.204;8.140;2023-03-01T05:16:31;-2.10;87.20
73576;DHT22;61859;49.204;8.140;2023-03-01T05:18:57;-2.20;87.20
73576;DHT22;61859;49.204;8.140;2023-03-01T05:21:24;-2.10;87.20
73576;DHT22;61859;49.204;8.140;2023-03-01T05:23:50;-2.00;87.10
73576;DHT22;61859;49.204;8.140;2023-03-01T05:26:18;-2.00;87.20
73576;DHT22;61859;49.204;8.140;2023-03-01T05:28:45;-2.00;87.30
73576;DHT22;61859;49.204;8.140;2023-03-01T05:31:10;-2.10;87.30
73576;DHT22;61859;49.204;8.140;2023-03-01T05:33:37;-2.10;87.40
73576;DHT22;61859;49.204;8.140;2023-03-01T05:36:04;-2.00;87.40
73576;DHT22;61859;49.204;8.140;2023-03-01T05:38:29;-2.10;87.40
73576;DHT22;61859;49.204;8.140;2023-03-01T05:40:55;-2.10;87.50
73576;DHT22;61859;49.204;8.140;2023-03-01T05:43:21;-2.10;87.40
73576;DHT22;61859;49.204;8.140;2023-03-01T05:45:46;-2.10;87.60
73576;DHT22;61859;49.204;8.140;2023-03-01T05:48:12;-2.20;87.60
73576;DHT22;61859;49.204;8.140;2023-03-01T05:50:42;-2.00;87.60
73576;DHT22;61859;49.204;8.140;2023-03-01T05:53:14;-2.10;87.80
73576;DHT22;61859;49.204;8.140;2023-03-01T05:55:41;-2.10;87.80
73576;DHT22;61859;49.204;8.140;2023-03-01T05:58:11;-2.10;88.00
73576;DHT22;61859;49.204;8.140;2023-03-01T06:00:36;-2.20;87.90
73576;DHT22;61859;49.204;8.140;2023-03-01T06:03:02;-2.00;87.80
73576;DHT22;61859;49.204;8.140;2023-03-01T06:05:29;-2.20;87.90
73576;DHT22;61859;49.204;8.140;2023-03-01T06:07:55;-2.20;87.80
73576;DHT22;61859;49.204;8.140;2023-03-01T06:10:23;-2.20;87.90
73576;DHT22;61859;49.204;8.140;2023-03-01T06:12:48;-2.10;87.90
73576;DHT22;61859;49.204;8.140;2023-03-01T06:15:15;-2.40;88.10
73576;DHT22;61859;49.204;8.140;2023-03-01T06:17:43;-2.20;88.20
73576;DHT22;61859;49.204;8.140;2023-03-01T06:22:36;-2.10;88.20
73576;DHT22;61859;49.204;8.140;2023-03-01T06:25:03;-2.20;88.20
73576;DHT22;61859;49.204;8.140;2023-03-01T06:27:29;-2.20;88.20
73576;DHT22;61859;49.204;8.140;2023-03-01T06:29:54;-2.10;88.50
73576;DHT22;61859;49.204;8.140;2023-03-01T06:32:20;-2.10;88.50
73576;DHT22;61859;49.204;8.140;2023-03-01T06:34:45;-2.30;88.40
73576;DHT22;61859;49.204;8.140;2023-03-01T06:37:11;-2.10;88.50
73576;DHT22;61859;49.204;8.140;2023-03-01T06:39:37;-2.10;88.40
73576;DHT22;61859;49.204;8.140;2023-03-01T06:42:03;-2.10;88.20
73576;DHT22;61859;49.204;8.140;2023-03-01T06:44:28;-2.00;88.30
73576;DHT22;61859;49.204;8.140;2023-03-01T06:46:54;-2.00;88.00
73576;DHT22;61859;49.204;8.140;2023-03-01T06:49:19;-1.80;87.70
73576;DHT22;61859;49.204;8.140;2023-03-01T06:51:46;-1.70;87.70
73576;DHT22;61859;49.204;8.140;2023-03-01T06:54:11;-1.60;87.70
73576;DHT22;61859;49.204;8.140;2023-03-01T06:56:37;-1.50;87.30
73576;DHT22;61859;49.204;8.140;2023-03-01T06:59:03;-1.50;87.10
73576;DHT22;61859;49.204;8.140;2023-03-01T07:01:29;-1.60;86.80
73576;DHT22;61859;49.204;8.140;2023-03-01T07:03:55;-1.40;86.60
73576;DHT22;61859;49.204;8.140;2023-03-01T07:06:21;-1.20;86.50
73576;DHT22;61859;49.204;8.140;2023-03-01T07:08:47;-1.40;86.10
73576;DHT22;61859;49.204;8.140;2023-03-01T07:11:13;-1.10;86.00
73576;DHT22;61859;49.204;8.140;2023-03-01T07:13:38;-1.20;85.70
73576;DHT22;61859;49.204;8.140;2023-03-01T07:16:04;-1.00;85.30
73576;DHT22;61859;49.204;8.140;2023-03-01T07:18:29;-0.50;84.90
73576;DHT22;61859;49.204;8.140;2023-03-01T07:20:55;-0.20;83.40
73576;DHT22;61859;49.204;8.140;2023-03-01T07:23:21;0.40;82.30
73576;DHT22;61859;49.204;8.140;2023-03-01T07:25:56;0.70;80.10
73576;DHT22;61859;49.204;8.140;2023-03-01T07:28:24;1.10;77.90
73576;DHT22;61859;49.204;8.140;2023-03-01T07:30:50;2.10;75.20
73576;DHT22;61859;49.204;8.140;2023-03-01T07:33:16;2.60;72.90
73576;DHT22;61859;49.204;8.140;2023-03-01T07:35:42;3.20;70.60
73576;DHT22;61859;49.204;8.140;2023-03-01T07:38:07;3.50;69.00
73576;DHT22;61859;49.204;8.140;2023-03-01T07:40:33;4.10;67.20
73576;DHT22;61859;49.204;8.140;2023-03-01T07:42:59;4.30;65.80
73576;DHT22;61859;49.204;8.140;2023-03-01T07:45:26;4.70;64.20
73576;DHT22;61859;49.204;8.140;2023-03-01T07:47:52;5.20;62.80
73576;DHT22;61859;49.204;8.140;2023-03-01T07:50:18;5.10;62.80
73576;DHT22;61859;49.204;8.140;2023-03-01T07:52:48;4.90;62.60
73576;DHT22;61859;49.204;8.140;2023-03-01T07:55:15;5.00;62.50
73576;DHT22;61859;49.204;8.140;2023-03-01T07:57:41;5.10;62.00
73576;DHT22;61859;49.204;8.140;2023-03-01T08:00:09;5.40;61.50
73576;DHT22;61859;49.204;8.140;2023-03-01T08:02:35;5.70;60.40
73576;DHT22;61859;49.204;8.140;2023-03-01T08:05:01;6.10;59.40
73576;DHT22;61859;49.204;8.140;2023-03-01T08:07:26;6.40;58.00
73576;DHT22;61859;49.204;8.140;2023-03-01T08:09:52;6.60;56.90
73576;DHT22;61859;49.204;8.140;2023-03-01T08:12:17;7.10;55.90
73576;DHT22;61859;49.204;8.140;2023-03-01T08:14:43;7.20;55.50
73576;DHT22;61859;49.204;8.140;2023-03-01T08:17:08;7.50;54.80
73576;DHT22;61859;49.204;8.140;2023-03-01T08:19:34;7.90;53.70
73576;DHT22;61859;49.204;8.140;2023-03-01T08:22:01;8.10;53.40
73576;DHT22;61859;49.204;8.140;2023-03-01T08:24:27;8.50;52.10
73576;DHT22;61859;49.204;8.140;2023-03-01T08:26:53;8.60;51.50
73576;DHT22;61859;49.204;8.140;2023-03-01T08:29:18;8.90;50.70
73576;DHT22;61859;49.204;8.140;2023-03-01T08:31:44;9.20;49.70
73576;DHT22;61859;49.204;8.140;2023-03-01T08:34:12;9.30;49.30
73576;DHT22;61859;49.204;8.140;2023-03-01T08:36:41;9.40;49.50
73576;DHT22;61859;49.204;8.140;2023-03-01T08:39:09;9.70;48.50
73576;DHT22;61859;49.204;8.140;2023-03-01T08:41:35;9.90;48.30
73576;DHT22;61859;49.204;8.140;2023-03-01T08:44:01;10.00;47.70
73576;DHT22;61859;49.204;8.140;2023-03-01T08:46:27;10.00;47.30
73576;DHT22;61859;49.204;8.140;2023-03-01T08:48:53;9.60;47.90
73576;DHT22;61859;49.204;8.140;2023-03-01T08:51:20;9.60;48.50
73576;DHT22;61859;49.204;8.140;2023-03-01T08:53:46;9.50;48.60
73576;DHT22;61859;49.204;8.140;2023-03-01T08:56:12;9.70;48.80
73576;DHT22;61859;49.204;8.140;2023-03-01T08:58:44;9.80;47.90
73576;DHT22;61859;49.204;8.140;2023-03-01T09:01:12;10.20;47.60
73576;DHT22;61859;49.204;8.140;2023-03-01T09:03:39;10.30;47.00
73576;DHT22;61859;49.204;8.140;2023-03-01T09:06:05;10.10;47.40
73576;DHT22;61859;49.204;8.140;2023-03-01T09:08:35;9.80;47.90
73576;DHT22;61859;49.204;8.140;2023-03-01T09:11:02;9.80;48.00
73576;DHT22;61859;49.204;8.140;2023-03-01T09:13:29;9.80;48.30
73576;DHT22;61859;49.204;8.140;2023-03-01T09:15:57;9.80;48.20
73576;DHT22;61859;49.204;8.140;2023-03-01T09:18:22;9.70;48.30
73576;DHT22;61859;49.204;8.140;2023-03-01T09:20:48;9.90;47.30
73576;DHT22;61859;49.204;8.140;2023-03-01T09:23:13;10.10;47.30
73576;DHT22;61859;49.204;8.140;2023-03-01T09:25:39;10.50;47.10
73576;DHT22;61859;49.204;8.140;2023-03-01T09:28:04;11.00;45.60
73576;DHT22;61859;49.204;8.140;2023-03-01T09:30:30;11.30;45.20
73576;DHT22;61859;49.204;8.140;2023-03-01T09:32:58;11.90;43.80
73576;DHT22;61859;49.204;8.140;2023-03-01T09:35:24;11.50;43.80
73576;DHT22;61859;49.204;8.140;2023-03-01T09:37:50;11.40;43.50
73576;DHT22;61859;49.204;8.140;2023-03-01T09:40:20;11.30;43.60
73576;DHT22;61859;49.204;8.140;2023-03-01T09:42:58;11.40;44.20
73576;DHT22;61859;49.204;8.140;2023-03-01T09:45:38;11.50;43.80
73576;DHT22;61859;49.204;8.140;2023-03-01T09:48:24;11.70;43.90
73576;DHT22;61859;49.204;8.140;2023-03-01T09:50:52;11.90;43.60
73576;DHT22;61859;49.204;8.140;2023-03-01T09:53:31;11.80;43.50
73576;DHT22;61859;49.204;8.140;2023-03-01T09:56:05;11.90;42.80
73576;DHT22;61859;49.204;8.140;2023-03-01T09:58:54;12.00;42.90
73576;DHT22;61859;49.204;8.140;2023-03-01T10:01:38;12.50;42.50
73576;DHT22;61859;49.204;8.140;2023-03-01T10:09:40;13.40;40.40
73576;DHT22;61859;49.204;8.140;2023-03-01T10:12:16;13.40;40.60
73576;DHT22;61859;49.204;8.140;2023-03-01T10:14:54;13.40;40.30
73576;DHT22;61859;49.204;8.140;2023-03-01T10:17:27;13.40;40.60
73576;DHT22;61859;49.204;8.140;2023-03-01T10:19:55;13.30;40.50
73576;DHT22;61859;49.204;8.140;2023-03-01T10:22:29;13.20;40.50
73576;DHT22;61859;49.204;8.140;2023-03-01T10:25:00;12.80;40.80
73576;DHT22;61859;49.204;8.140;2023-03-01T10:27:34;12.90;41.60
73576;DHT22;61859;49.204;8.140;2023-03-01T10:30:11;12.80;40.90
73576;DHT22;61859;49.204;8.140;2023-03-01T10:32:39;13.00;41.40
73576;DHT22;61859;49.204;8.140;2023-03-01T10:35:23;13.30;40.40
73576;DHT22;61859;49.204;8.140;2023-03-01T10:38:03;13.20;40.40
73576;DHT22;61859;49.204;8.140;2023-03-01T10:40:28;13.00;40.50
73576;DHT22;61859;49.204;8.140;2023-03-01T10:42:58;13.20;40.80
73576;DHT22;61859;49.204;8.140;2023-03-01T10:48:16;13.70;40.00
73576;DHT22;61859;49.204;8.140;2023-03-01T10:50:44;13.80;39.70
73576;DHT22;61859;49.204;8.140;2023-03-01T10:53:24;13.60;40.10
73576;DHT22;61859;49.204;8.140;2023-03-01T10:55:58;13.80;40.50
73576;DHT22;61859;49.204;8.140;2023-03-01T10:58:24;14.40;39.60
73576;DHT22;61859;49.204;8.140;2023-03-01T11:00:56;14.60;38.70
73576;DHT22;61859;49.204;8.140;2023-03-01T11:03:34;14.70;38.70
73576;DHT22;61859;49.204;8.140;2023-03-01T11:06:02;14.70;38.80
73576;DHT22;61859;49.204;8.140;2023-03-01T11:11:21;14.60;38.70
73576;DHT22;61859;49.204;8.140;2023-03-01T11:13:58;14.60;38.60
73576;DHT22;61859;49.204;8.140;2023-03-01T11:16:27;14.90;38.50
73576;DHT22;61859;49.204;8.140;2023-03-01T11:18:57;14.80;38.30
73576;DHT22;61859;49.204;8.140;2023-03-01T11:21:23;14.80;38.50
73576;DHT22;61859;49.204;8.140;2023-03-01T11:23:50;15.00;38.90
73576;DHT22;61859;49.204;8.140;2023-03-01T11:26:17;15.30;37.90
73576;DHT22;61859;49.204;8.140;2023-03-01T11:28:44;15.60;37.10
73576;DHT22;61859;49.204;8.140;2023-03-01T11:31:12;15.80;36.80
73576;DHT22;61859;49.204;8.140;2023-03-01T11:33:48;16.00;36.90
73576;DHT22;61859;49.204;8.140;2023-03-01T11:39:34;16.70;36.40
73576;DHT22;61859;49.204;8.140;2023-03-01T11:42:20;17.20;35.80
73576;DHT22;61859;49.204;8.140;2023-03-01T11:44:52;17.20;35.30
73576;DHT22;61859;49.204;8.140;2023-03-01T12:01:11;15.80;37.60
73576;DHT22;61859;49.204;8.140;2023-03-01T12:04:06;16.40;36.50
73576;DHT22;61859;49.204;8.140;2023-03-01T12:06:52;17.00;36.20
73576;DHT22;61859;49.204;8.140;2023-03-01T12:18:13;18.70;33.40
73576;DHT22;61859;49.204;8.140;2023-03-01T12:21:15;18.70;33.60
73576;DHT22;61859;49.204;8.140;2023-03-01T12:35:09;18.30;33.50
73576;DHT22;61859;49.204;8.140;2023-03-01T12:43:03;19.10;32.80
73576;DHT22;61859;49.204;8.140;2023-03-01T12:46:25;19.00;33.20
73576;DHT22;61859;49.204;8.140;2023-03-01T12:51:33;19.60;32.80
73576;DHT22;61859;49.204;8.140;2023-03-01T12:54:05;19.40;32.40
73576;DHT22;61859;49.204;8.140;2023-03-01T12:56:35;19.40;32.50
73576;DHT22;61859;49.204;8.140;2023-03-01T13:04:51;20.20;32.10
73576;DHT22;61859;49.204;8.140;2023-03-01T13:07:38;19.80;31.80
73576;DHT22;61859;49.204;8.140;2023-03-01T13:17:51;19.80;32.00
73576;DHT22;61859;49.204;8.140;2023-03-01T13:20:19;19.80;32.00
73576;DHT22;61859;49.204;8.140;2023-03-01T13:22:46;19.50;32.10
73576;DHT22;61859;49.204;8.140;2023-03-01T13:25:19;19.40;32.10
73576;DHT22;61859;49.204;8.140;2023-03-01T13:27:46;19.50;32.30
73576;DHT22;61859;49.204;8.140;2023-03-01T13:35:53;19.60;32.10
73576;DHT22;61859;49.204;8.140;2023-03-01T13:41:04;19.30;32.60
73576;DHT22;61859;49.204;8.140;2023-03-01T13:43:42;19.60;32.40
73576;DHT22;61859;49.204;8.140;2023-03-01T13:46:21;19.70;31.90
73576;DHT22;61859;49.204;8.140;2023-03-01T13:48:51;19.60;31.70
73576;DHT22;61859;49.204;8.140;2023-03-01T13:51:26;19.60;32.00
73576;DHT22;61859;49.204;8.140;2023-03-01T13:53:52;19.30;32.30
73576;DHT22;61859;49.204;8.140;2023-03-01T13:56:26;19.40;32.20
73576;DHT22;61859;49.204;8.140;2023-03-01T13:59:02;19.20;32.20
73576;DHT22;61859;49.204;8.140;2023-03-01T14:03:56;19.00;32.50
73576;DHT22;61859;49.204;8.140;2023-03-01T14:06:28;19.10;32.10
73576;DHT22;61859;49.204;8.140;2023-03-01T14:09:05;19.10;32.40
73576;DHT22;61859;49.204;8.140;2023-03-01T14:14:40;19.10;32.40
73576;DHT22;61859;49.204;8.140;2023-03-01T14:19:48;19.30;32.10
73576;DHT22;61859;49.204;8.140;2023-03-01T14:22:30;19.20;32.10
73576;DHT22;61859;49.204;8.140;2023-03-01T14:25:03;19.30;32.30
73576;DHT22;61859;49.204;8.140;2023-03-01T14:27:35;19.10;32.30
73576;DHT22;61859;49.204;8.140;2023-03-01T14:30:15;18.80;32.80
73576;DHT22;61859;49.204;8.140;2023-03-01T14:32:43;19.00;32.60
73576;DHT22;61859;49.204;8.140;2023-03-01T14:35:31;18.70;32.70
73576;DHT22;61859;49.204;8.140;2023-03-01T14:37:57;18.40;32.80
73576;DHT22;61859;49.204;8.140;2023-03-01T14:40:28;18.30;33.30
73576;DHT22;61859;49.204;8.140;2023-03-01T14:42:58;18.10;33.90
73576;DHT22;61859;49.204;8.140;2023-03-01T14:45:26;18.10;33.60
73576;DHT22;61859;49.204;8.140;2023-03-01T14:47:53;17.80;33.70
73576;DHT22;61859;49.204;8.140;2023-03-01T14:50:32;17.60;34.20
73576;DHT22;61859;49.204;8.140;2023-03-01T14:53:03;17.50;34.30
73576;DHT22;61859;49.204;8.140;2023-03-01T14:55:36;17.40;34.30
73576;DHT22;61859;49.204;8.140;2023-03-01T14:58:05;17.50;34.20
73576;DHT22;61859;49.204;8.140;2023-03-01T15:00:33;17.40;34.30
73576;DHT22;61859;49.204;8.140;2023-03-01T15:03:12;17.20;34.70
73576;DHT22;61859;49.204;8.140;2023-03-01T15:05:40;17.10;34.80
73576;DHT22;61859;49.204;8.140;2023-03-01T15:08:07;17.00;34.30
73576;DHT22;61859;49.204;8.140;2023-03-01T15:10:39;16.70;34.60
73576;DHT22;61859;49.204;8.140;2023-03-01T15:13:23;16.50;35.40
73576;DHT22;61859;49.204;8.140;2023-03-01T15:15:51;16.50;35.70
73576;DHT22;61859;49.204;8.140;2023-03-01T15:18:29;16.60;35.40
73576;DHT22;61859;49.204;8.140;2023-03-01T15:20:56;16.30;35.80
73576;DHT22;61859;49.204;8.140;2023-03-01T15:23:30;16.00;35.70
73576;DHT22;61859;49.204;8.140;2023-03-01T15:25:57;15.50;36.40
73576;DHT22;61859;49.204;8.140;2023-03-01T15:28:27;15.00;36.90
73576;DHT22;61859;49.204;8.140;2023-03-01T15:30:57;14.60;37.70
73576;DHT22;61859;49.204;8.140;2023-03-01T15:33:33;14.60;37.70
73576;DHT22;61859;49.204;8.140;2023-03-01T15:36:02;14.50;37.70
73576;DHT22;61859;49.204;8.140;2023-03-01T15:38:50;14.20;38.10
73576;DHT22;61859;49.204;8.140;2023-03-01T15:43:53;13.60;38.90
73576;DHT22;61859;49.204;8.140;2023-03-01T15:48:56;13.20;39.50
73576;DHT22;61859;49.204;8.140;2023-03-01T15:51:28;13.10;39.90
73576;DHT22;61859;49.204;8.140;2023-03-01T15:53:55;12.80;40.50
73576;DHT22;61859;49.204;8.140;2023-03-01T15:56:21;12.60;41.50
73576;DHT22;61859;49.204;8.140;2023-03-01T15:58:47;12.30;41.50
73576;DHT22;61859;49.204;8.140;2023-03-01T16:01:14;12.20;41.80
73576;DHT22;61859;49.204;8.140;2023-03-01T16:03:40;12.20;42.60
73576;DHT22;61859;49.204;8.140;2023-03-01T16:06:09;12.10;42.50
73576;DHT22;61859;49.204;8.140;2023-03-01T16:08:35;11.90;42.30
73576;DHT22;61859;49.204;8.140;2023-03-01T16:11:00;11.70;42.80
73576;DHT22;61859;49.204;8.140;2023-03-01T16:13:30;11.60;43.20
73576;DHT22;61859;49.204;8.140;2023-03-01T16:15:57;11.70;43.30
73576;DHT22;61859;49.204;8.140;2023-03-01T16:18:22;11.70;43.30
73576;DHT22;61859;49.204;8.140;2023-03-01T16:20:48;11.60;43.30
73576;DHT22;61859;49.204;8.140;2023-03-01T16:23:14;11.50;43.60
73576;DHT22;61859;49.204;8.140;2023-03-01T16:25:40;11.40;43.40
73576;DHT22;61859;49.204;8.140;2023-03-01T16:28:07;11.00;43.90
73576;DHT22;61859;49.204;8.140;2023-03-01T16:30:39;10.70;44.30
73576;DHT22;61859;49.204;8.140;2023-03-01T16:33:05;10.40;45.00
73576;DHT22;61859;49.204;8.140;2023-03-01T16:35:33;10.10;45.90
73576;DHT22;61859;49.204;8.140;2023-03-01T16:37:59;9.70;46.30
73576;DHT22;61859;49.204;8.140;2023-03-01T16:40:28;9.50;46.80
73576;DHT22;61859;49.204;8.140;2023-03-01T16:42:55;9.20;47.80
73576;DHT22;61859;49.204;8.140;2023-03-01T16:45:25;8.90;48.40
73576;DHT22;61859;49.204;8.140;2023-03-01T16:47:53;8.60;49.20
73576;DHT22;61859;49.204;8.140;2023-03-01T16:50:19;8.50;50.00
73576;DHT22;61859;49.204;8.140;2023-03-01T16:52:44;8.10;50.10
73576;DHT22;61859;49.204;8.140;2023-03-01T16:55:10;7.90;50.80
73576;DHT22;61859;49.204;8.140;2023-03-01T16:57:37;7.80;51.20
73576;DHT22;61859;49.204;8.140;2023-03-01T17:00:13;7.60;51.90
73576;DHT22;61859;49.204;8.140;2023-03-01T17:02:39;7.30;52.50
73576;DHT22;61859;49.204;8.140;2023-03-01T17:05:07;7.20;53.00
73576;DHT22;61859;49.204;8.140;2023-03-01T17:07:33;7.00;53.40
73576;DHT22;61859;49.204;8.140;2023-03-01T17:10:00;6.90;53.90
73576;DHT22;61859;49.204;8.140;2023-03-01T17:12:26;6.80;54.60
73576;DHT22;61859;49.204;8.140;2023-03-01T17:14:52;6.40;55.20
73576;DHT22;61859;49.204;8.140;2023-03-01T17:17:18;6.40;55.60
73576;DHT22;61859;49.204;8.140;2023-03-01T17:19:43;6.20;56.00
73576;DHT22;61859;49.204;8.140;2023-03-01T17:22:10;6.00;56.50
73576;DHT22;61859;49.204;8.140;2023-03-01T17:24:38;6.00;56.50
73576;DHT22;61859;49.204;8.140;2023-03-01T17:27:05;5.90;57.40
73576;DHT22;61859;49.204;8.140;2023-03-01T17:29:31;5.70;57.60